Time;durP1;ratioP1;P1;durP2;ratioP2;P2;SDS_P1;SDS_P2;PMS_P1;PMS_P2;Temp;Humidity;BMP_temperature;BMP_pressure;BME280_temperature;BME280_humidity;BME280_pressure;Samples;Min_cycle;Max_cycle;Signal;HPM_P1;HPM_P2
2022/12/15 00:39:16;;;;;;;34.00;21.77;;;0.10;99.90;;;;;;5036551;28;20523;-69
2022/12/15 00:41:42;;;;;;;36.83;22.37;;;0.10;99.90;;;;;;5038763;28;20516;-69
2022/12/15 00:44:07;;;;;;;33.37;24.47;;;0.00;99.90;;;;;;5040516;28;20264;-69
2022/12/15 01:22:07;;;;;;;34.97;24.13;;;0.00;99.90;;;;;;5045751;28;20502;-69
2022/12/15 01:24:33;;;;;;;34.20;22.90;;;0.00;99.90;;;;;;5034291;28;20862;-69
2022/12/15 01:26:58;;;;;;;35.40;22.93;;;0.00;99.90;;;;;;5042622;28;20236;-69
2022/12/15 01:29:24;;;;;;;34.47;22.63;;;0.10;99.90;;;;;;5034758;28;20221;-69
2022/12/15 01:31:50;;;;;;;33.97;21.33;;;0.10;99.90;;;;;;5033415;28;20613;-69
2022/12/15 01:34:17;;;;;;;36.17;23.00;;;0.10;99.90;;;;;;5033329;28;20436;-69
2022/12/15 01:36:42;;;;;;;34.50;23.17;;;0.10;99.90;;;;;;5042810;28;20277;-69
2022/12/15 01:39:08;;;;;;;36.47;23.53;;;0.10;99.90;;;;;;5045995;28;20432;-69
2022/12/15 01:41:33;;;;;;;36.40;23.87;;;0.10;99.90;;;;;;5038188;28;20573;-69
2022/12/15 01:44:35;;;;;;;33.73;24.70;;;0.20;99.90;;;;;;5045152;28;20270;-69
2022/12/15 01:47:01;;;;;;;30.50;21.73;;;0.20;99.90;;;;;;4998827;28;20210;-69
2022/12/15 01:49:28;;;;;;;31.00;23.67;;;0.20;99.90;;;;;;5025078;28;20436;-69
2022/12/15 01:51:58;;;;;;;36.37;24.77;;;0.20;99.90;;;;;;5036607;28;20174;-69
2022/12/15 01:54:48;;;;;;;30.70;21.57;;;0.20;99.90;;;;;;5042873;28;20538;-69
2022/12/15 01:57:18;;;;;;;36.60;23.40;;;0.10;99.90;;;;;;5034691;28;20452;-69
2022/12/15 01:59:49;;;;;;;43.13;22.27;;;0.10;99.90;;;;;;5040699;28;20456;-69
2022/12/15 02:02:16;;;;;;;38.67;23.80;;;0.00;99.90;;;;;;5031898;28;20472;-69
2022/12/15 02:04:43;;;;;;;32.30;23.30;;;0.00;99.90;;;;;;5038634;28;20444;-69
2022/12/15 02:07:12;;;;;;;38.43;26.50;;;0.00;99.90;;;;;;5030360;28;20472;-69
2022/12/15 02:09:38;;;;;;;40.93;25.90;;;0.00;99.90;;;;;;5040110;28;20858;-69
2022/12/15 02:12:07;;;;;;;42.53;30.20;;;0.10;99.90;;;;;;5038892;28;20433;-69
2022/12/15 02:14:51;;;;;;;41.80;26.63;;;0.10;99.90;;;;;;5031217;28;20964;-69
2022/12/15 02:17:56;;;;;;;37.77;23.90;;;0.10;99.90;;;;;;5037970;28;20520;-69
2022/12/15 02:20:39;;;;;;;40.17;26.60;;;0.00;99.90;;;;;;5027588;28;20992;-69
2022/12/15 02:23:42;;;;;;;32.30;22.67;;;0.00;99.90;;;;;;5041572;28;20451;-69
2022/12/15 02:26:38;;;;;;;38.37;24.17;;;0.10;99.90;;;;;;5033315;28;20456;-69
2022/12/15 02:29:12;;;;;;;34.77;23.97;;;0.10;99.90;;;;;;5032529;28;20935;-69
2022/12/15 02:31:48;;;;;;;41.13;25.47;;;0.20;99.90;;;;;;5038767;28;20443;-70
2022/12/15 02:34:27;;;;;;;33.90;24.67;;;0.10;99.90;;;;;;5026171;28;20455;-69
2022/12/15 02:37:02;;;;;;;39.53;24.60;;;0.10;99.90;;;;;;5046868;28;20505;-70
2022/12/15 02:39:28;;;;;;;35.90;26.20;;;0.10;99.90;;;;;;5040749;28;20495;-69
2022/12/15 02:41:54;;;;;;;35.60;23.30;;;0.10;99.90;;;;;;5041810;28;20455;-69
2022/12/15 02:44:37;;;;;;;35.10;23.77;;;0.20;99.90;;;;;;5043606;28;20944;-69
2022/12/15 02:47:25;;;;;;;39.23;25.27;;;0.20;99.90;;;;;;5041430;28;20316;-69
2022/12/15 02:50:22;;;;;;;39.20;25.50;;;0.20;99.90;;;;;;5019055;28;20491;-69
2022/12/15 02:53:19;;;;;;;35.60;23.00;;;0.20;99.90;;;;;;5028122;28;20431;-69
2022/12/15 02:56:04;;;;;;;41.97;27.83;;;0.10;99.90;;;;;;5030578;28;20447;-69
2022/12/15 02:58:38;;;;;;;36.83;25.40;;;0.10;99.90;;;;;;5043921;28;20523;-69
2022/12/15 03:01:28;;;;;;;37.43;23.97;;;0.10;99.90;;;;;;5040375;28;20456;-69
2022/12/15 03:03:55;;;;;;;36.70;23.73;;;0.10;99.90;;;;;;5042833;28;20799;-69
2022/12/15 03:06:24;;;;;;;36.13;24.93;;;0.20;99.90;;;;;;5043632;28;20464;-69
2022/12/15 03:08:49;;;;;;;32.63;23.80;;;0.20;99.90;;;;;;5039406;28;20445;-69
2022/12/15 03:11:15;;;;;;;35.03;22.60;;;0.10;99.90;;;;;;5034196;28;20861;-69
2022/12/15 03:13:40;;;;;;;40.27;26.50;;;0.20;99.90;;;;;;5039013;28;20549;-69
2022/12/15 03:16:06;;;;;;;37.00;24.70;;;0.20;99.90;;;;;;5034318;28;20174;-69
2022/12/15 03:18:32;;;;;;;39.47;25.10;;;0.10;99.90;;;;;;5029433;28;20224;-69
2022/12/15 03:20:57;;;;;;;40.80;25.87;;;0.10;99.90;;;;;;5030156;28;20210;-69
2022/12/15 03:23:23;;;;;;;36.87;24.13;;;0.00;99.90;;;;;;5030234;28;20178;-69
2022/12/15 03:25:49;;;;;;;34.10;24.30;;;0.10;99.90;;;;;;5031582;28;20659;-69
2022/12/15 03:28:15;;;;;;;37.53;25.17;;;0.10;99.90;;;;;;5030856;28;20166;-69
2022/12/15 03:30:40;;;;;;;39.83;25.30;;;0.10;99.90;;;;;;5029698;28;20470;-69
2022/12/15 03:33:06;;;;;;;40.30;27.00;;;0.00;99.90;;;;;;5030864;28;20225;-69
2022/12/15 03:35:32;;;;;;;46.13;28.80;;;-0.10;99.90;;;;;;5031034;28;20173;-69
2022/12/15 03:37:58;;;;;;;39.50;24.70;;;0.00;99.90;;;;;;5030085;28;20275;-69
2022/12/15 03:40:23;;;;;;;40.83;26.10;;;0.00;99.90;;;;;;5029864;28;20555;-69
2022/12/15 03:42:49;;;;;;;41.50;26.70;;;0.00;99.90;;;;;;5028434;28;20186;-69
2022/12/15 03:45:23;;;;;;;37.23;25.00;;;0.00;99.90;;;;;;5030583;28;20640;-69
2022/12/15 03:47:50;;;;;;;38.73;26.93;;;0.00;99.90;;;;;;5029809;28;20206;-69
2022/12/15 03:50:19;;;;;;;40.53;26.53;;;0.00;99.90;;;;;;5030840;28;20841;-69
2022/12/15 03:52:48;;;;;;;51.37;28.17;;;0.00;99.90;;;;;;5030354;28;20425;-69
2022/12/15 03:55:14;;;;;;;40.80;27.77;;;0.00;99.90;;;;;;5030878;28;20769;-69
2022/12/15 03:57:41;;;;;;;39.60;25.87;;;0.00;99.90;;;;;;5031325;28;20429;-69
2022/12/15 04:00:07;;;;;;;38.07;27.17;;;0.00;99.90;;;;;;5032610;28;20460;-69
2022/12/15 04:02:32;;;;;;;48.33;29.07;;;0.00;99.90;;;;;;5028263;28;20426;-69
2022/12/15 04:04:58;;;;;;;45.97;28.20;;;0.00;99.90;;;;;;5030429;28;20798;-69
2022/12/15 04:07:23;;;;;;;43.73;27.17;;;0.00;99.90;;;;;;5039255;28;20222;-69
2022/12/15 04:09:49;;;;;;;40.17;26.57;;;0.00;99.90;;;;;;5034667;28;20214;-70
2022/12/15 04:12:14;;;;;;;46.57;30.23;;;0.00;99.90;;;;;;5039488;28;20170;-69
2022/12/15 04:14:41;;;;;;;50.80;30.63;;;0.10;99.90;;;;;;5035606;28;20248;-69
2022/12/15 04:17:08;;;;;;;40.97;26.77;;;0.00;99.90;;;;;;5040759;28;20169;-69
2022/12/15 04:22:18;;;;;;;49.80;29.67;;;-0.10;99.90;;;;;;5036569;28;20443;-69
2022/12/15 05:33:09;;;;;;;43.90;26.70;;;-0.20;99.90;;;;;;5022276;28;20464;-69
2022/12/15 05:35:34;;;;;;;42.67;25.77;;;-0.20;99.90;;;;;;5029850;28;20950;-69
2022/12/15 05:38:00;;;;;;;50.50;28.67;;;-0.20;99.90;;;;;;5028389;28;20261;-69
2022/12/15 05:40:25;;;;;;;52.63;29.60;;;-0.20;99.90;;;;;;5027152;28;20210;-69
2022/12/15 05:42:51;;;;;;;48.67;29.87;;;-0.10;99.90;;;;;;5028276;28;20178;-70
2022/12/15 05:45:16;;;;;;;47.83;29.60;;;-0.10;99.90;;;;;;5031203;28;20174;-69
2022/12/15 05:47:42;;;;;;;47.43;27.73;;;-0.10;99.90;;;;;;5031953;28;20202;-69
2022/12/15 05:50:08;;;;;;;50.50;29.90;;;-0.10;99.90;;;;;;5032346;28;20218;-69
2022/12/15 05:52:33;;;;;;;49.67;28.20;;;-0.10;99.90;;;;;;5032700;28;20170;-69
2022/12/15 05:54:59;;;;;;;48.93;27.93;;;0.00;99.90;;;;;;5035416;28;20240;-69
2022/12/15 05:57:24;;;;;;;45.27;27.40;;;0.00;99.90;;;;;;5038584;28;20251;-69
2022/12/15 05:59:50;;;;;;;41.10;27.10;;;0.00;99.90;;;;;;5040099;28;20271;-69
2022/12/15 06:02:15;;;;;;;47.63;28.37;;;0.00;99.90;;;;;;5033715;28;20186;-69
2022/12/15 06:04:41;;;;;;;46.93;28.37;;;0.00;99.90;;;;;;5042133;28;20182;-68
2022/12/15 06:07:06;;;;;;;45.40;27.97;;;0.10;99.90;;;;;;5041235;28;20290;-68
2022/12/15 06:09:32;;;;;;;47.97;28.70;;;0.10;99.90;;;;;;5045527;28;20570;-68
2022/12/15 06:11:57;;;;;;;48.30;28.30;;;0.00;99.90;;;;;;5042573;28;20190;-68
2022/12/15 06:14:23;;;;;;;53.10;31.60;;;0.10;99.90;;;;;;5038276;28;20182;-68
2022/12/15 06:16:48;;;;;;;48.37;27.93;;;0.10;99.90;;;;;;5049201;28;20262;-68
2022/12/15 06:19:14;;;;;;;53.40;30.13;;;0.10;99.90;;;;;;5041121;28;20178;-68
2022/12/15 06:21:39;;;;;;;49.10;30.93;;;-0.10;99.90;;;;;;5043379;28;20197;-69
2022/12/15 06:24:05;;;;;;;39.10;27.00;;;-0.10;99.90;;;;;;5031779;28;20641;-68
2022/12/15 06:26:36;;;;;;;40.90;27.53;;;0.00;99.90;;;;;;5031932;28;20256;-69
2022/12/15 06:29:04;;;;;;;49.80;29.77;;;-0.10;99.90;;;;;;5032495;28;20433;-68
2022/12/15 06:31:31;;;;;;;48.63;28.83;;;-0.10;99.90;;;;;;5032695;28;20514;-69
2022/12/15 06:33:57;;;;;;;51.80;28.47;;;-0.10;99.90;;;;;;5031789;28;20433;-68
2022/12/15 06:36:23;;;;;;;38.03;25.60;;;0.00;99.90;;;;;;5031587;28;20448;-68
2022/12/15 06:38:49;;;;;;;43.77;25.53;;;0.00;99.90;;;;;;5031053;28;20218;-68
2022/12/15 06:41:16;;;;;;;42.17;25.70;;;0.00;99.90;;;;;;5030515;28;20277;-68
2022/12/15 06:43:47;;;;;;;40.67;26.20;;;0.10;99.90;;;;;;5029138;28;20523;-68
2022/12/15 06:46:13;;;;;;;43.00;24.93;;;0.10;99.90;;;;;;5030843;28;20464;-68
2022/12/15 06:48:38;;;;;;;38.30;24.10;;;0.10;99.90;;;;;;5035904;28;20436;-68
2022/12/15 06:51:06;;;;;;;41.50;26.47;;;0.00;99.90;;;;;;5031582;28;20620;-68
2022/12/15 06:53:35;;;;;;;47.40;27.50;;;0.10;99.90;;;;;;5029336;28;20197;-69
2022/12/15 06:56:02;;;;;;;43.17;27.07;;;0.10;99.90;;;;;;5032338;28;20425;-69
2022/12/15 06:58:28;;;;;;;39.67;25.07;;;0.10;99.90;;;;;;5044448;28;21207;-69
2022/12/15 07:00:55;;;;;;;58.07;30.13;;;0.20;99.90;;;;;;5038338;28;20456;-68
2022/12/15 07:03:20;;;;;;;41.13;25.57;;;0.20;99.90;;;;;;5033919;28;20239;-69
2022/12/15 07:05:46;;;;;;;40.40;26.53;;;0.20;99.90;;;;;;5041637;28;20425;-69
2022/12/15 07:08:14;;;;;;;43.97;25.80;;;0.10;99.90;;;;;;5039623;28;20177;-69
2022/12/15 07:10:43;;;;;;;42.33;26.97;;;0.00;99.90;;;;;;5040214;28;20209;-68
2022/12/15 07:13:10;;;;;;;50.07;30.50;;;0.00;99.90;;;;;;5031995;28;20432;-68
2022/12/15 07:15:36;;;;;;;39.90;24.97;;;0.00;99.90;;;;;;5032283;28;20440;-68
2022/12/15 07:18:02;;;;;;;45.67;26.33;;;0.00;99.90;;;;;;5032356;28;20441;-68
2022/12/15 07:20:28;;;;;;;42.53;26.80;;;0.00;99.90;;;;;;5041137;28;20839;-68
2022/12/15 07:22:54;;;;;;;50.07;28.97;;;0.00;99.90;;;;;;5037973;28;20178;-68
2022/12/15 07:25:20;;;;;;;46.37;26.73;;;0.10;99.90;;;;;;5028362;28;20479;-68
2022/12/15 07:27:45;;;;;;;46.40;28.70;;;0.20;99.90;;;;;;5030200;28;20205;-69
2022/12/15 07:30:13;;;;;;;43.57;28.30;;;0.20;99.90;;;;;;5030715;28;20710;-68
2022/12/15 07:32:39;;;;;;;41.63;26.53;;;0.30;99.90;;;;;;5031256;28;20436;-69
2022/12/15 07:35:07;;;;;;;41.53;28.83;;;0.20;99.90;;;;;;5028553;28;20444;-69
2022/12/15 07:37:33;;;;;;;51.70;28.73;;;0.30;99.90;;;;;;5035813;28;20435;-69
2022/12/15 07:39:59;;;;;;;43.87;27.33;;;0.30;99.90;;;;;;5029722;28;20910;-69
2022/12/15 07:42:24;;;;;;;46.47;29.33;;;0.30;99.90;;;;;;5029124;28;20476;-68
2022/12/15 07:44:50;;;;;;;41.13;28.23;;;0.30;99.90;;;;;;5031045;28;20189;-68
2022/12/15 07:47:15;;;;;;;44.93;29.00;;;0.40;99.90;;;;;;5043708;28;20204;-68
2022/12/15 07:49:41;;;;;;;47.53;29.50;;;0.50;99.90;;;;;;5033251;28;20719;-69
2022/12/15 07:52:06;;;;;;;39.70;26.17;;;0.60;99.90;;;;;;5030714;28;20256;-69
2022/12/15 07:54:32;;;;;;;41.53;27.60;;;0.60;99.90;;;;;;5028745;28;20178;-68
2022/12/15 07:56:58;;;;;;;49.50;30.07;;;0.50;99.90;;;;;;5030981;28;20186;-68
2022/12/15 07:59:25;;;;;;;38.93;26.53;;;0.40;99.90;;;;;;5036802;28;20189;-68
2022/12/15 08:01:52;;;;;;;42.13;28.00;;;0.40;99.90;;;;;;5030292;28;20451;-68
2022/12/15 08:04:17;;;;;;;47.13;27.57;;;0.50;99.90;;;;;;5029065;28;20444;-68
2022/12/15 08:06:43;;;;;;;40.57;25.20;;;0.40;99.90;;;;;;5029794;28;20572;-69
2022/12/15 08:09:09;;;;;;;40.57;27.40;;;0.50;99.90;;;;;;5003617;28;20191;-69
2022/12/15 08:11:35;;;;;;;40.13;28.27;;;0.60;99.90;;;;;;5011222;28;20194;-72
2022/12/15 08:14:01;;;;;;;45.30;29.20;;;0.60;99.90;;;;;;5031612;28;20429;-69
2022/12/15 08:16:27;;;;;;;48.30;31.67;;;0.70;99.90;;;;;;5028937;28;20186;-69
2022/12/15 08:18:53;;;;;;;46.90;28.50;;;0.80;99.90;;;;;;5024749;28;20210;-69
2022/12/15 08:21:19;;;;;;;56.10;31.20;;;0.80;99.90;;;;;;5029484;28;20566;-68
2022/12/15 08:23:44;;;;;;;45.43;27.03;;;0.90;99.90;;;;;;5029436;28;20186;-71
2022/12/15 08:26:13;;;;;;;45.77;26.63;;;0.90;99.90;;;;;;5035510;28;20228;-68
2022/12/15 08:28:40;;;;;;;47.63;29.03;;;0.90;99.90;;;;;;5036410;28;20253;-72
2022/12/15 08:31:15;;;;;;;43.23;25.73;;;1.00;99.90;;;;;;5032603;28;20456;-69
2022/12/15 08:33:41;;;;;;;50.23;30.67;;;1.00;99.90;;;;;;5039087;28;20442;-70
2022/12/15 08:36:09;;;;;;;45.37;29.20;;;1.10;99.90;;;;;;5029037;28;20433;-71
2022/12/15 08:38:37;;;;;;;45.40;28.07;;;1.00;99.90;;;;;;5027582;28;20437;-69
2022/12/15 08:41:30;;;;;;;44.97;29.93;;;1.00;99.90;;;;;;5032614;28;20452;-70
2022/12/15 08:43:57;;;;;;;45.03;27.10;;;1.10;99.90;;;;;;5029276;28;20780;-69
2022/12/15 08:46:28;;;;;;;37.73;25.13;;;1.20;99.90;;;;;;5045928;28;20456;-71
2022/12/15 08:48:54;;;;;;;42.20;27.87;;;1.20;99.90;;;;;;5025592;28;20441;-70
2022/12/15 08:51:20;;;;;;;42.50;26.97;;;1.20;99.90;;;;;;5022396;28;20563;-69
2022/12/15 08:53:46;;;;;;;51.23;29.83;;;1.20;99.90;;;;;;5022797;28;20635;-70
2022/12/15 08:56:14;;;;;;;43.53;28.57;;;1.10;99.90;;;;;;5023195;28;20483;-71
2022/12/15 08:58:41;;;;;;;39.63;26.23;;;1.10;99.90;;;;;;5024969;28;20178;-70
2022/12/15 09:01:10;;;;;;;44.93;28.73;;;1.10;99.90;;;;;;5028285;28;20465;-69
2022/12/15 09:03:35;;;;;;;45.60;28.37;;;1.20;99.90;;;;;;5027681;28;20543;-69
2022/12/15 09:06:06;;;;;;;42.23;27.53;;;1.20;99.90;;;;;;5031119;28;20441;-69
2022/12/15 09:08:33;;;;;;;46.13;28.40;;;1.30;99.90;;;;;;5038920;28;20181;-69
2022/12/15 09:10:59;;;;;;;49.53;29.63;;;1.30;99.90;;;;;;5029787;28;20476;-71
2022/12/15 09:13:25;;;;;;;41.97;28.83;;;1.40;99.90;;;;;;5034016;28;20523;-74
2022/12/15 09:15:58;;;;;;;52.10;30.53;;;1.50;99.90;;;;;;5027047;28;20536;-75
2022/12/15 09:18:24;;;;;;;47.93;27.60;;;1.50;99.90;;;;;;5026463;28;20190;-68
2022/12/15 09:20:49;;;;;;;42.80;27.77;;;1.40;99.90;;;;;;5029513;28;20457;-71
2022/12/15 09:23:15;;;;;;;44.80;28.23;;;1.60;99.90;;;;;;5042104;28;20292;-69
2022/12/15 09:25:41;;;;;;;44.40;29.10;;;1.50;99.90;;;;;;5031115;28;20178;-75
2022/12/15 09:28:06;;;;;;;49.50;31.17;;;1.80;99.90;;;;;;5026955;28;20574;-69
2022/12/15 09:30:32;;;;;;;47.80;28.50;;;1.90;99.90;;;;;;5035142;28;20225;-69
2022/12/15 09:32:57;;;;;;;39.07;26.67;;;1.80;99.90;;;;;;5032257;28;20182;-69
2022/12/15 09:35:26;;;;;;;47.07;28.30;;;1.90;99.90;;;;;;5036915;28;20177;-70
2022/12/15 09:37:52;;;;;;;47.40;28.93;;;1.90;99.90;;;;;;5032580;28;20228;-70
2022/12/15 09:40:18;;;;;;;45.20;27.53;;;2.10;99.90;;;;;;5032335;28;20468;-72
2022/12/15 09:42:50;;;;;;;44.60;26.93;;;2.20;99.90;;;;;;5032134;28;20486;-70
2022/12/15 09:45:22;;;;;;;44.77;28.50;;;2.30;99.90;;;;;;5032995;28;20448;-69
2022/12/15 09:48:13;;;;;;;44.77;27.07;;;2.30;99.90;;;;;;5031081;28;20468;-70
2022/12/15 09:50:39;;;;;;;43.63;28.80;;;2.30;99.90;;;;;;5039383;28;20574;-71
2022/12/15 09:53:11;;;;;;;58.53;27.10;;;2.20;99.90;;;;;;5031451;28;20770;-70
2022/12/15 09:55:37;;;;;;;46.27;27.97;;;2.10;99.90;;;;;;5049202;28;20846;-72
2022/12/15 09:58:40;;;;;;;38.73;26.67;;;1.90;99.90;;;;;;5031870;28;20814;-71
2022/12/15 10:01:32;;;;;;;51.17;25.67;;;1.90;99.90;;;;;;5034945;28;20995;-69
2022/12/15 10:04:06;;;;;;;50.37;28.13;;;1.80;99.90;;;;;;5030620;28;20465;-69
2022/12/15 10:07:19;;;;;;;51.93;28.80;;;1.60;99.90;;;;;;5025336;28;20511;-68
2022/12/15 10:09:44;;;;;;;43.63;28.50;;;1.50;99.90;;;;;;5024466;28;20603;-70
2022/12/15 10:12:33;;;;;;;47.10;28.63;;;1.50;99.90;;;;;;5030160;28;20529;-68
2022/12/15 10:15:01;;;;;;;43.90;27.83;;;1.60;99.90;;;;;;5035835;28;20854;-73
2022/12/15 10:17:44;;;;;;;45.83;29.03;;;1.60;99.90;;;;;;5029843;28;20524;-69
2022/12/15 10:20:25;;;;;;;43.30;27.70;;;1.70;99.90;;;;;;5026639;28;20838;-68
2022/12/15 10:22:51;;;;;;;45.80;29.47;;;1.50;99.90;;;;;;5030084;28;20473;-68
2022/12/15 10:25:20;;;;;;;43.70;28.23;;;1.50;99.90;;;;;;5031011;28;20531;-68
2022/12/15 10:28:01;;;;;;;52.17;29.50;;;1.50;99.90;;;;;;5034037;28;20560;-70
2022/12/15 10:30:26;;;;;;;50.80;28.07;;;1.50;99.90;;;;;;5027331;28;20449;-68
2022/12/15 10:33:07;;;;;;;44.13;28.07;;;1.60;99.90;;;;;;5028404;28;20428;-70
2022/12/15 10:35:34;;;;;;;45.77;29.20;;;1.90;99.90;;;;;;5029008;28;20257;-69
2022/12/15 10:38:20;;;;;;;44.20;26.00;;;2.10;99.90;;;;;;5020293;28;20889;-69
2022/12/15 10:40:54;;;;;;;45.67;28.50;;;2.10;99.90;;;;;;5025016;28;20457;-69
2022/12/15 10:43:41;;;;;;;55.10;30.90;;;2.30;99.90;;;;;;5020359;28;20420;-69
2022/12/15 10:46:22;;;;;;;42.60;24.70;;;2.30;99.90;;;;;;5033676;28;20482;-69
2022/12/15 10:48:58;;;;;;;42.27;26.00;;;2.10;99.90;;;;;;5014761;28;20802;-71
2022/12/15 10:51:31;;;;;;;45.43;26.17;;;1.90;99.90;;;;;;5024477;28;20449;-72
2022/12/15 10:54:08;;;;;;;47.10;29.13;;;1.90;99.90;;;;;;5034004;28;20429;-68
2022/12/15 10:56:46;;;;;;;40.47;28.97;;;1.90;99.90;;;;;;5033858;28;20490;-68
2022/12/15 10:59:34;;;;;;;43.60;27.90;;;1.90;99.90;;;;;;5032375;28;20432;-68
2022/12/15 11:02:19;;;;;;;48.77;27.73;;;1.90;99.90;;;;;;5032136;28;20797;-69
2022/12/15 11:05:09;;;;;;;39.30;24.70;;;1.90;99.90;;;;;;5026094;28;20461;-69
2022/12/15 11:07:42;;;;;;;38.07;25.03;;;2.00;99.90;;;;;;5024623;28;20540;-66
2022/12/15 11:12:50;;;;;;;43.03;25.60;;;2.00;99.90;;;;;;5020526;28;20464;-70
2022/12/15 11:13:19;;;;;;;43.97;26.60;;;2.00;99.90;;;;;;5013733;28;20850;-67
2022/12/15 11:15:46;;;;;;;41.00;25.80;;;1.90;99.90;;;;;;5022309;28;20914;-69
2022/12/15 11:18:49;;;;;;;45.37;26.70;;;1.90;99.90;;;;;;5033017;28;20441;-69
2022/12/15 11:21:34;;;;;;;38.97;25.90;;;1.80;99.90;;;;;;5032183;28;20448;-69
2022/12/15 11:24:20;;;;;;;37.23;25.80;;;2.10;99.90;;;;;;5025788;28;20464;-70
2022/12/15 11:27:10;;;;;;;44.87;27.67;;;2.40;99.90;;;;;;5032572;28;20472;-67
2022/12/15 11:29:47;;;;;;;45.67;27.60;;;2.60;99.90;;;;;;5031512;28;20500;-68
2022/12/15 11:32:14;;;;;;;40.10;26.30;;;2.50;99.90;;;;;;5024314;28;20482;-67
2022/12/15 11:34:44;;;;;;;39.83;27.20;;;2.60;99.90;;;;;;5029052;28;20443;-68
2022/12/15 11:37:23;;;;;;;37.53;26.67;;;2.70;99.90;;;;;;5029836;28;20449;-66
2022/12/15 11:40:14;;;;;;;42.30;25.90;;;2.70;99.90;;;;;;5038301;28;20870;-66
2022/12/15 11:42:51;;;;;;;70.80;39.00;;;2.70;99.90;;;;;;5028918;28;20432;-64
2022/12/15 11:45:23;;;;;;;55.80;30.90;;;2.40;99.90;;;;;;5035487;28;20435;-63
2022/12/15 11:47:55;;;;;;;50.50;28.60;;;2.40;99.90;;;;;;5030573;28;20465;-64
2022/12/15 11:50:32;;;;;;;47.20;27.40;;;2.50;99.90;;;;;;5042384;28;20492;-65
2022/12/15 11:53:01;;;;;;;48.00;27.50;;;2.60;99.90;;;;;;5030035;28;20437;-64
2022/12/15 11:55:48;;;;;;;43.30;26.23;;;2.70;99.90;;;;;;5030188;28;20452;-65
2022/12/15 11:58:20;;;;;;;42.30;27.30;;;2.80;99.90;;;;;;5025406;28;20497;-66
2022/12/15 12:01:00;;;;;;;42.17;28.43;;;2.70;99.90;;;;;;5026956;28;20456;-68
2022/12/15 12:03:47;;;;;;;47.83;26.77;;;2.70;99.90;;;;;;5029218;28;20436;-66
2022/12/15 12:06:35;;;;;;;36.50;24.53;;;2.60;99.90;;;;;;5022198;28;20528;-67
2022/12/15 12:09:19;;;;;;;41.53;28.40;;;2.60;99.90;;;;;;5024988;28;20460;-66
2022/12/15 12:11:54;;;;;;;38.00;27.80;;;2.70;99.90;;;;;;5040189;28;20439;-65
2022/12/15 12:14:22;;;;;;;50.60;28.97;;;2.70;99.90;;;;;;5026518;28;20494;-68
2022/12/15 12:17:25;;;;;;;52.97;28.10;;;2.70;99.90;;;;;;5029491;28;20533;-67
2022/12/15 12:19:56;;;;;;;38.97;25.40;;;2.70;99.90;;;;;;5029813;28;20481;-67
2022/12/15 12:22:35;;;;;;;44.77;26.87;;;2.60;99.90;;;;;;5028256;28;20437;-68
2022/12/15 12:25:07;;;;;;;51.30;27.97;;;2.60;99.90;;;;;;5029833;28;20483;-65
2022/12/15 12:27:39;;;;;;;49.00;26.90;;;2.50;99.90;;;;;;5037831;28;20511;-69
2022/12/15 12:30:10;;;;;;;45.23;27.57;;;2.50;99.90;;;;;;5030707;28;20464;-69
2022/12/15 12:32:46;;;;;;;42.20;26.40;;;2.60;99.90;;;;;;5036823;28;20479;-67
2022/12/15 12:35:14;;;;;;;38.10;26.50;;;2.70;99.90;;;;;;5028496;28;20854;-69
2022/12/15 12:37:45;;;;;;;40.67;26.50;;;2.70;99.90;;;;;;5029987;28;20490;-71
2022/12/15 12:40:23;;;;;;;35.83;25.17;;;2.80;99.90;;;;;;5030283;28;20626;-65
2022/12/15 12:42:53;;;;;;;42.70;25.80;;;2.90;99.90;;;;;;5029707;28;20443;-65
2022/12/15 12:45:25;;;;;;;38.00;26.80;;;2.90;99.90;;;;;;5033373;28;20477;-71
2022/12/15 12:47:55;;;;;;;45.87;28.40;;;3.00;99.90;;;;;;5029774;28;20468;-67
2022/12/15 12:50:24;;;;;;;41.87;28.17;;;3.20;99.90;;;;;;5037654;28;20449;-67
2022/12/15 12:52:56;;;;;;;50.17;28.03;;;3.20;99.90;;;;;;5029814;28;20472;-65
2022/12/15 12:55:28;;;;;;;40.63;26.00;;;3.20;99.90;;;;;;5029577;28;20960;-64
2022/12/15 12:57:54;;;;;;;35.00;24.00;;;3.20;99.90;;;;;;5028973;28;20428;-65
2022/12/15 13:00:23;;;;;;;42.63;27.60;;;3.10;99.90;;;;;;5030841;28;20516;-65
2022/12/15 13:02:51;;;;;;;37.00;25.97;;;3.10;99.90;;;;;;5032569;28;20448;-65
2022/12/15 13:05:32;;;;;;;49.00;28.33;;;3.00;99.90;;;;;;5034806;28;20443;-65
2022/12/15 13:08:03;;;;;;;39.40;26.00;;;2.90;99.90;;;;;;5029420;28;20460;-66
2022/12/15 13:10:31;;;;;;;47.87;30.00;;;3.00;99.90;;;;;;5031945;28;20555;-70
2022/12/15 13:13:14;;;;;;;29.93;24.33;;;3.00;99.90;;;;;;5033656;28;20455;-68
2022/12/15 13:15:48;;;;;;;39.33;27.73;;;3.00;99.90;;;;;;5037801;28;20428;-67
2022/12/15 13:18:22;;;;;;;44.70;25.77;;;2.80;99.90;;;;;;5024081;28;20480;-65
2022/12/15 13:20:53;;;;;;;41.43;26.13;;;2.70;99.90;;;;;;5027975;28;20519;-65
2022/12/15 13:23:18;;;;;;;42.90;27.33;;;2.60;99.90;;;;;;5027450;28;20472;-70
2022/12/15 13:25:59;;;;;;;42.10;26.33;;;2.60;99.90;;;;;;5031771;28;20472;-68
2022/12/15 13:28:26;;;;;;;39.17;26.03;;;2.40;99.90;;;;;;5027665;28;20197;-67
2022/12/15 13:31:20;;;;;;;40.30;26.37;;;2.50;99.90;;;;;;5037239;28;20480;-67
2022/12/15 13:33:48;;;;;;;38.53;25.40;;;2.30;99.90;;;;;;5033196;28;20429;-68
2022/12/15 13:36:35;;;;;;;39.80;24.83;;;2.20;99.90;;;;;;5034771;28;20428;-68
2022/12/15 13:39:01;;;;;;;41.40;27.23;;;2.20;99.90;;;;;;5040662;28;20840;-67
2022/12/15 13:41:27;;;;;;;42.37;26.20;;;2.10;99.90;;;;;;5030524;28;20448;-66
2022/12/15 13:43:53;;;;;;;40.67;26.63;;;2.00;99.90;;;;;;5034657;28;20494;-66
2022/12/15 13:46:23;;;;;;;38.53;26.67;;;2.00;99.90;;;;;;5030186;28;20227;-66
2022/12/15 13:49:24;;;;;;;39.53;26.13;;;2.10;99.90;;;;;;5031251;28;20440;-69
2022/12/15 13:51:49;;;;;;;41.77;26.80;;;2.30;99.90;;;;;;5026239;28;20945;-68
2022/12/15 13:54:15;;;;;;;35.00;23.67;;;2.30;99.90;;;;;;5036212;28;20479;-70
2022/12/15 13:57:10;;;;;;;37.57;24.67;;;2.20;99.90;;;;;;5030103;28;20395;-67
2022/12/15 13:59:38;;;;;;;40.43;26.10;;;2.20;99.90;;;;;;5019143;28;20206;-71
2022/12/15 14:02:24;;;;;;;39.37;26.70;;;2.20;99.90;;;;;;5028885;28;20468;-69
2022/12/15 14:05:24;;;;;;;39.20;24.20;;;2.30;99.90;;;;;;5034520;28;20439;-68
2022/12/15 14:07:53;;;;;;;41.73;27.37;;;2.10;99.90;;;;;;4993339;28;20475;-67
2022/12/15 14:10:34;;;;;;;42.60;25.83;;;2.10;99.90;;;;;;5035698;28;20551;-71
2022/12/15 14:13:07;;;;;;;39.70;27.37;;;2.00;99.90;;;;;;5033487;28;20443;-68
2022/12/15 14:15:34;;;;;;;44.53;26.50;;;1.90;99.90;;;;;;5028890;28;20440;-70
2022/12/15 14:18:01;;;;;;;41.53;27.33;;;1.90;99.90;;;;;;5032009;28;20886;-69
2022/12/15 14:20:40;;;;;;;33.57;23.63;;;1.80;99.90;;;;;;5032272;28;20452;-67
2022/12/15 14:23:27;;;;;;;41.20;25.27;;;1.90;99.90;;;;;;5036644;28;20487;-66
2022/12/15 14:26:13;;;;;;;37.47;23.60;;;1.90;99.90;;;;;;5034449;28;20486;-67
2022/12/15 14:28:45;;;;;;;41.80;25.87;;;1.90;99.90;;;;;;5039854;28;20872;-68
2022/12/15 14:31:15;;;;;;;43.70;25.00;;;1.90;99.90;;;;;;5038379;28;20572;-70
2022/12/15 14:33:44;;;;;;;36.07;23.67;;;1.90;99.90;;;;;;5041478;28;20962;-67
2022/12/15 14:36:13;;;;;;;38.93;24.27;;;1.90;99.90;;;;;;5034719;28;20425;-67
2022/12/15 14:38:58;;;;;;;43.00;23.33;;;1.90;99.90;;;;;;5036398;28;20507;-69
2022/12/15 14:41:32;;;;;;;37.50;24.43;;;1.80;99.90;;;;;;5032720;28;20483;-68
2022/12/15 14:44:03;;;;;;;36.30;22.93;;;1.80;99.90;;;;;;5032466;28;20496;-70
2022/12/15 14:46:29;;;;;;;37.67;24.47;;;1.80;99.90;;;;;;5033109;28;20475;-69
2022/12/15 14:48:56;;;;;;;37.83;23.40;;;1.80;99.90;;;;;;5033201;28;20432;-68
2022/12/15 14:51:24;;;;;;;33.57;22.47;;;1.80;99.90;;;;;;5027859;28;20682;-66
2022/12/15 14:53:51;;;;;;;36.50;23.63;;;1.70;99.90;;;;;;5021632;28;20934;-67
2022/12/15 14:56:17;;;;;;;35.67;24.20;;;1.70;99.90;;;;;;5030456;28;20449;-68
2022/12/15 14:58:44;;;;;;;35.23;22.33;;;1.60;99.90;;;;;;5033866;28;20433;-71
2022/12/15 15:01:26;;;;;;;34.60;22.10;;;1.70;99.90;;;;;;5031709;28;20204;-68
2022/12/15 15:03:59;;;;;;;35.83;21.03;;;1.60;99.90;;;;;;5040434;28;20443;-69
2022/12/15 15:06:38;;;;;;;36.30;22.27;;;1.50;99.90;;;;;;5041803;28;20463;-67
2022/12/15 15:09:19;;;;;;;34.70;21.80;;;1.50;99.90;;;;;;5039662;28;20490;-71
2022/12/15 15:11:48;;;;;;;41.43;22.17;;;1.50;99.90;;;;;;5044635;28;20436;-70
2022/12/15 15:14:25;;;;;;;41.13;23.83;;;1.40;99.90;;;;;;5032049;28;20994;-67
2022/12/15 15:17:08;;;;;;;40.50;22.33;;;1.40;99.90;;;;;;5041468;28;20482;-69
2022/12/15 15:19:37;;;;;;;39.43;24.83;;;1.50;99.90;;;;;;5029820;28;20521;-69
2022/12/15 15:22:02;;;;;;;33.57;22.13;;;1.50;99.90;;;;;;5046590;28;20428;-67
2022/12/15 15:24:36;;;;;;;40.57;24.63;;;1.50;99.90;;;;;;5040407;28;20440;-71